Latest Weather Observations for Bundaberg

IDQ60801

Issued at 9:02 pm EST Friday 6 May 2016 (issued every 30 minutes, with the page automatically refreshed every 10 minutes)

About weather observations | Map of weather stations | Latest weather observations for QLD | Other Formats
Station Details ID: 039128 Name: BUNDABERG AERO Lat: -24.91 Lon: 152.32 Height: 30.82 m
Data from the previous 72 hours. | See also: Recent months at Bundaberg
Date/Time
EST
Temp
°C
App
Temp
°C
Dew
Point
Rel
Hum
%
Delta-T
°C
Wind Press
QNH
hPa
Press
MSL
hPa
Rain
since 9 am
mm
Dir
 
Spd
km/h
Gust
km/h
Spd
kts
Gust
kts
06/09:00pm 20.4 21.0 17.8 85 1.6 SSE 11 15 6 8 1018.7 1018.6 0.0
06/08:30pm 20.4 21.1 18.0 86 1.5 SSE 11 13 6 7 1018.6 1018.5 0.0
06/08:00pm 20.9 21.6 17.9 83 1.9 SSE 11 13 6 7 1018.2 1018.1 0.0
06/07:30pm 21.2 22.8 18.2 83 1.9 SE 7 9 4 5 1018.1 1018.0 0.0
06/07:00pm 21.2 22.5 18.4 84 1.7 ESE 9 9 5 5 1017.8 1017.7 0.0
06/06:30pm 21.4 22.9 18.0 81 2.1 E 7 9 4 5 1017.7 1017.6 0.0
06/06:00pm 21.7 23.1 17.7 78 2.5 ESE 7 9 4 5 1017.4 1017.3 0.0
06/05:30pm 22.5 23.0 17.4 73 3.2 ESE 11 13 6 7 1017.1 1017.0 0.0
06/05:00pm 23.9 23.6 17.4 67 4.0 E 15 20 8 11 1016.7 1016.6 0.0
06/04:30pm 24.7 23.9 17.2 63 4.7 E 17 20 9 11 1016.5 1016.4 0.0
06/04:00pm 24.7 23.8 16.9 62 4.8 E 17 22 9 12 1016.1 1016.0 0.0
06/03:30pm 25.2 24.2 16.6 59 5.3 E 17 20 9 11 1016.5 1016.4 0.0
06/03:00pm 25.1 23.6 15.4 55 5.9 E 17 20 9 11 1016.5 1016.4 0.0
06/02:30pm 26.0 24.2 15.4 52 6.4 E 19 26 10 14 1016.3 1016.2 0.0
06/02:00pm 25.9 25.0 15.9 54 6.1 ESE 15 22 8 12 1016.3 1016.2 0.0
06/01:30pm 26.2 25.0 16.2 54 6.1 ESE 17 24 9 13 1016.7 1016.6 0.0
06/01:00pm 26.3 25.3 15.7 52 6.5 ESE 15 26 8 14 1016.8 1016.7 0.0
06/12:30pm 26.8 25.8 16.7 54 6.3 ESE 17 24 9 13 1016.9 1016.8 0.0
06/12:00pm 26.1 25.4 16.4 55 6.0 ESE 15 22 8 12 1017.5 1017.4 0.0
06/11:30am 25.5 25.2 16.4 57 5.6 ESE 13 20 7 11 1017.8 1017.7 0.0
06/11:00am 25.2 25.4 17.7 63 4.7 SSE 13 20 7 11 1018.6 1018.5 0.0
06/10:30am 24.6 24.9 17.8 66 4.3 SE 13 19 7 10 1018.9 1018.8 0.0
06/10:00am 24.2 24.2 18.2 69 3.8 SE 15 20 8 11 1019.4 1019.3 0.0
06/09:30am 23.3 23.8 18.4 74 3.1 SSE 13 19 7 10 1019.7 1019.6 0.0
06/09:00am 21.9 22.3 18.1 79 2.4 S 13 19 7 10 1019.8 1019.7 0.0
06/08:30am 21.3 22.1 18.1 82 2.0 S 11 15 6 8 1019.4 1019.3 0.0
06/08:00am 20.2 20.5 17.8 86 1.5 S 13 17 7 9 1019.2 1019.1 0.0
06/07:30am 19.0 18.9 17.0 88 1.2 SSW 13 17 7 9 1018.9 1018.8 0.0
06/07:00am 17.9 17.5 16.2 90 1.0 SSW 13 17 7 9 1018.4 1018.3 0.0
06/06:30am 17.1 16.6 16.0 93 0.6 S 13 17 7 9 1017.9 1017.8 0.0
06/06:00am 17.4 17.3 16.1 92 0.8 S 11 13 6 7 1017.6 1017.5 0.0
06/05:30am 17.5 17.5 16.2 92 0.8 SSW 11 15 6 8 1017.7 1017.6 0.0
06/05:00am 17.6 17.6 16.3 92 0.8 SSW 11 13 6 7 1017.4 1017.3 0.0
06/04:30am 17.7 17.8 16.4 92 0.8 SSW 11 13 6 7 1017.3 1017.2 0.0
06/04:00am 17.7 17.8 16.4 92 0.8 S 11 13 6 7 1017.1 1017.0 0.0
06/03:30am 17.9 18.0 16.6 92 0.8 SSW 11 15 6 8 1017.2 1017.1 0.0
06/03:00am 17.9 17.7 16.6 92 0.8 SSW 13 15 7 8 1017.2 1017.1 0.0
06/02:30am 18.0 17.8 16.7 92 0.8 SSW 13 15 7 8 1017.4 1017.3 0.0
06/02:00am 17.9 18.1 16.8 93 0.7 SSW 11 13 6 7 1017.5 1017.4 0.0
06/01:30am 18.0 17.8 16.7 92 0.8 SSW 13 15 7 8 1017.7 1017.6 0.0
06/01:00am 18.4 18.4 17.1 92 0.8 SSW 13 17 7 9 1017.9 1017.8 0.0
06/12:30am 18.6 18.9 17.1 91 0.9 SSW 11 13 6 7 1018.2 1018.1 0.0
06/12:00am 18.6 19.0 17.3 92 0.8 SSW 11 13 6 7 1018.4 1018.3 0.0
 
Date/Time
EST
Temp
°C
App
Temp
°C
Dew
Point
Rel
Hum
%
Delta-T
°C
Wind Press
QNH
hPa
Press
MSL
hPa
Rain
since 9 am
mm
Dir
 
Spd
km/h
Gust
km/h
Spd
kts
Gust
kts
05/11:30pm 18.8 19.3 17.5 92 0.8 S 11 13 6 7 1018.5 1018.4 0.0
05/11:00pm 18.9 19.7 17.4 91 0.9 S 9 13 5 7 1018.8 1018.7 0.0
05/10:30pm 18.9 19.7 17.2 90 1.0 S 9 13 5 7 1018.8 1018.7 0.0
05/10:00pm 19.2 20.0 17.2 88 1.2 S 9 11 5 6 1018.8 1018.7 0.0
05/09:30pm 19.8 20.4 17.6 87 1.4 SSE 11 13 6 7 1019.0 1018.9 0.0
05/09:00pm 19.6 20.5 17.6 88 1.2 S 9 11 5 6 1018.9 1018.8 0.0
05/08:30pm 19.5 20.7 17.3 87 1.3 SSE 7 7 4 4 1019.0 1018.9 0.0
05/08:00pm 20.3 21.6 17.5 84 1.7 SSE 7 9 4 5 1018.9 1018.8 0.0
05/07:30pm 20.7 21.7 17.7 83 1.9 SE 9 13 5 7 1018.6 1018.5 0.0
05/07:00pm 21.1 21.3 17.7 81 2.1 ESE 13 17 7 9 1018.2 1018.1 0.0
05/06:30pm 21.5 21.8 17.9 80 2.2 ESE 13 15 7 8 1017.9 1017.8 0.0
05/06:00pm 22.3 22.3 18.1 77 2.6 ESE 15 19 8 10 1017.4 1017.3 0.0
05/05:30pm 23.0 23.3 17.9 73 3.2 E 13 17 7 9 1017.3 1017.2 0.0
05/05:00pm 24.1 22.9 17.1 65 4.3 E 19 24 10 13 1016.9 1016.8 0.0
05/04:30pm 25.3 23.5 15.6 55 5.9 E 19 22 10 12 1016.7 1016.6 0.0
05/04:00pm 25.8 24.1 15.8 54 6.1 E 19 26 10 14 1016.6 1016.5 0.0
05/03:30pm 25.8 24.2 16.6 56 5.7 ESE 20 28 11 15 1016.6 1016.5 0.0
05/03:00pm 26.1 24.5 16.6 55 5.9 ESE 20 26 11 14 1016.5 1016.4 0.0
05/02:30pm 26.2 25.2 16.7 56 5.9 E 17 26 9 14 1016.5 1016.4 0.0
05/02:00pm 26.9 26.4 16.8 54 6.3 ENE 15 24 8 13 1016.6 1016.5 0.0
05/01:30pm 26.3 26.0 16.5 54 6.1 ESE 13 20 7 11 1016.9 1016.8 0.0
05/01:00pm 26.8 26.1 16.4 53 6.4 E 15 20 8 11 1017.1 1017.0 0.0
05/12:30pm 26.9 26.1 16.2 52 6.6 E 15 24 8 13 1017.5 1017.4 0.0
05/12:00pm 26.5 25.9 16.7 55 6.1 ESE 15 24 8 13 1018.2 1018.1 0.0
05/11:30am 26.2 25.6 16.7 56 5.9 E 15 20 8 11 1018.7 1018.6 0.0
05/11:00am 25.8 25.2 16.6 56 5.7 SE 15 24 8 13 1019.2 1019.1 0.0
05/10:30am 25.2 24.4 17.1 60 5.0 SE 17 24 9 13 1019.7 1019.6 0.0
05/10:00am 24.7 23.9 17.2 63 4.6 SE 17 22 9 12 1019.9 1019.8 0.0
05/09:30am 24.3 24.6 18.0 68 4.0 SE 13 19 7 10 1020.1 1020.0 0.0
05/09:00am 23.0 22.9 17.0 69 3.7 SSE 13 20 7 11 1020.0 1019.9 0.2
05/08:30am 21.2 21.0 16.8 76 2.7 S 13 19 7 10 1019.8 1019.7 0.2
05/08:00am 19.9 19.4 16.0 78 2.3 S 13 17 7 9 1019.5 1019.4 0.2
05/07:30am 18.8 18.5 15.5 81 1.9 S 11 15 6 8 1019.3 1019.2 0.2
05/07:00am 17.6 17.0 14.7 83 1.7 S 11 15 6 8 1019.0 1018.9 0.2
05/06:30am 16.9 15.8 14.4 85 1.4 S 13 19 7 10 1018.4 1018.3 0.2
05/06:00am 17.0 16.0 14.6 86 1.4 SSW 13 17 7 9 1018.2 1018.1 0.2
05/05:30am 16.8 16.2 14.6 87 1.3 SSW 11 15 6 8 1017.9 1017.8 0.2
05/05:00am 16.9 15.9 14.5 86 1.4 SSW 13 15 7 8 1017.6 1017.5 0.2
05/04:30am 16.6 15.9 14.4 87 1.3 SSW 11 13 6 7 1017.4 1017.3 0.2
05/04:00am 16.5 16.2 14.3 87 1.3 SSW 9 11 5 6 1017.2 1017.1 0.2
05/03:30am 17.0 16.7 14.5 85 1.4 SSW 9 11 5 6 1017.2 1017.1 0.2
05/03:00am 17.1 16.4 14.4 84 1.5 SSW 11 13 6 7 1017.0 1016.9 0.2
05/02:30am 17.3 16.6 14.4 83 1.7 SSW 11 13 6 7 1017.1 1017.0 0.2
05/02:00am 17.6 16.9 14.3 81 1.9 SSW 11 13 6 7 1017.3 1017.2 0.2
05/01:30am 17.7 17.0 14.2 80 2.0 SSW 11 13 6 7 1017.4 1017.3 0.2
05/01:00am 17.6 16.8 14.1 80 2.0 SSW 11 15 6 8 1017.4 1017.3 0.2
05/12:30am 17.8 16.7 14.3 80 2.0 SSW 13 15 7 8 1017.6 1017.5 0.2
05/12:00am 17.8 17.7 14.9 83 1.7 SSW 9 13 5 7 1017.7 1017.6 0.2
 
Date/Time
EST
Temp
°C
App
Temp
°C
Dew
Point
Rel
Hum
%
Delta-T
°C
Wind Press
QNH
hPa
Press
MSL
hPa
Rain
since 9 am
mm
Dir
 
Spd
km/h
Gust
km/h
Spd
kts
Gust
kts
04/11:30pm 18.0 17.9 14.9 82 1.8 SSW 9 11 5 6 1017.9 1017.8 0.2
04/11:00pm 18.2 17.8 15.3 83 1.7 SSW 11 15 6 8 1018.0 1017.9 0.2
04/10:30pm 19.3 18.6 15.4 78 2.3 S 13 19 7 10 1018.1 1018.0 0.2
04/10:00pm 19.6 19.4 15.7 78 2.3 SSE 11 15 6 8 1018.2 1018.1 0.2
04/09:30pm 19.6 19.9 15.9 79 2.2 SSE 9 13 5 7 1018.2 1018.1 0.2
04/09:00pm 19.8 19.9 16.4 81 2.0 SE 11 13 6 7 1018.0 1017.9 0.2
04/08:30pm 20.2 20.2 16.2 78 2.4 ESE 11 15 6 8 1017.9 1017.8 0.2
04/08:00pm 20.3 20.6 16.9 81 2.1 ESE 11 13 6 7 1017.7 1017.6 0.2
04/07:30pm 21.0 21.2 17.6 81 2.1 ESE 13 13 7 7 1017.3 1017.2 0.2
04/07:00pm 21.6 22.6 18.6 83 1.9 E 11 13 6 7 1016.9 1016.8 0.2
04/06:30pm 22.2 23.7 18.8 81 2.1 E 9 11 5 6 1016.4 1016.3 0.2
04/06:00pm 22.7 23.8 18.0 75 2.9 E 9 9 5 5 1016.0 1015.9 0.2
04/05:30pm 23.7 24.7 17.7 69 3.7 ENE 9 11 5 6 1015.4 1015.3 0.2
04/05:00pm 25.0 24.6 17.2 62 4.8 ENE 15 19 8 10 1014.8 1014.7 0.2
04/04:30pm 25.7 25.4 17.4 60 5.2 ENE 15 19 8 10 1014.6 1014.5 0.2
04/04:00pm 26.5 26.7 18.6 62 5.0 ENE 15 19 8 10 1014.3 1014.2 0.2
04/03:30pm 26.1 26.3 18.5 63 4.8 E 15 19 8 10 1014.2 1014.1 0.2
04/03:00pm 27.0 28.0 16.9 54 6.3 SE 7 11 4 6 1014.0 1013.9 0.2
04/02:30pm 26.9 27.7 15.9 51 6.7 S 6 9 3 5 1014.0 1013.9 0.2
04/02:00pm 26.9 28.3 16.5 53 6.4 SSE 4 9 2 5 1013.9 1013.8 0.2
04/01:30pm 27.2 27.4 16.8 53 6.5 SSW 11 13 6 7 1014.1 1014.0 0.2
04/01:00pm 26.4 27.2 17.2 57 5.7 SSE 9 15 5 8 1014.4 1014.3 0.2
04/12:30pm 26.1 26.1 17.2 58 5.6 SSW 13 20 7 11 1014.5 1014.4 0.2
04/12:00pm 26.4 26.5 17.5 58 5.6 SW 13 19 7 10 1014.9 1014.8 0.2
04/11:30am 26.1 25.6 17.7 60 5.3 SSW 17 24 9 13 1015.3 1015.2 0.2
04/11:00am 25.0 25.1 18.4 66 4.2 SW 15 19 8 10 1015.5 1015.4 0.2
04/10:30am 23.7 24.4 19.6 78 2.6 SW 15 20 8 11 1016.1 1016.0 0.2
04/10:00am 22.3 23.6 19.3 83 1.9 WSW 11 13 6 7 1016.4 1016.3 0.2
04/09:30am 21.1 22.9 19.6 91 1.0 SW 9 11 5 6 1017.0 1016.9 0.2
04/09:00am 20.8 22.6 19.5 92 0.8 SSE 9 13 5 7 1016.8 1016.7 2.8
04/08:30am 20.2 22.1 18.9 92 0.8 SW 7 11 4 6 1016.9 1016.8 2.2
04/08:00am 20.7 20.4 18.3 86 1.5 SSW 17 22 9 12 1016.5 1016.4 1.0
04/07:30am 20.2 19.7 17.8 86 1.5 SSW 17 24 9 13 1016.0 1015.9 1.0
04/07:00am 22.0 21.8 18.4 80 2.3 SW 17 24 9 13 1015.8 1015.7 0.2
04/06:30am 22.0 23.3 19.2 84 1.8 SSW 11 13 6 7 1015.0 1014.9 0.2
04/06:00am 21.9 24.2 20.7 93 0.8 SW 9 13 5 7 1014.7 1014.6 0.2
04/05:30am 22.0 26.3 21.2 95 0.5 CALM 0 0 0 0 1014.1 1014.0 0.0
04/05:23am 22.0 26.3 21.2 95 0.5 CALM 0 0 0 0 1014.0 1013.9 0.0
04/05:00am 22.0 25.2 21.3 96 0.5 W 6 7 3 4 1013.6 1013.5 0.0
04/04:46am 22.0 25.9 21.2 95 0.5 W 2 9 1 5 1013.6 1013.5 0.0
04/04:30am 21.9 25.0 21.1 95 0.5 W 6 7 3 4 1013.3 1013.2 0.0
04/04:00am 22.0 25.1 21.0 94 0.7 NW 6 9 3 5 1013.1 1013.0 0.0
04/03:30am 22.2 26.4 21.0 93 0.8 CALM 0 0 0 0 1013.0 1012.9 0.0
04/03:00am 22.3 25.4 21.1 93 0.8 SW 6 9 3 5 1013.0 1012.9 0.0
04/02:30am 22.5 26.7 21.0 91 1.0 CALM 0 0 0 0 1012.9 1012.8 0.0
04/02:00am 22.7 25.9 21.3 92 0.9 W 6 6 3 3 1013.1 1013.0 0.0
04/01:30am 22.8 25.8 21.3 91 1.0 NNW 7 9 4 5 1013.2 1013.1 0.0
04/01:00am 23.1 25.8 21.4 90 1.1 NNW 9 11 5 6 1013.3 1013.2 0.0
04/12:30am 23.1 25.8 21.4 90 1.1 NNW 9 11 5 6 1013.3 1013.2 0.0
04/12:00am 23.1 26.2 21.5 91 1.1 NNW 7 9 4 5 1013.4 1013.3 0.0
 
Date/Time
EST
Temp
°C
App
Temp
°C
Dew
Point
Rel
Hum
%
Delta-T
°C
Wind Press
QNH
hPa
Press
MSL
hPa
Rain
since 9 am
mm
Dir
 
Spd
km/h
Gust
km/h
Spd
kts
Gust
kts
03/11:30pm 23.1 26.0 21.7 92 0.9 NNW 9 11 5 6 1013.7 1013.6 0.0
03/11:00pm 23.1 26.3 21.7 92 0.9 NNW 7 9 4 5 1013.8 1013.7 0.0
03/10:30pm 23.5 26.8 21.8 90 1.1 NNW 7 9 4 5 1013.5 1013.4 0.0
03/10:00pm 24.0 26.6 21.9 88 1.4 N 11 13 6 7 1013.7 1013.6 0.0
03/09:30pm 24.1 26.8 22.2 89 1.3 N 11 13 6 7 1013.8 1013.7 0.0

Other Formats:

Comma delimited format used in spreadsheet applications
http://www.bom.gov.au/fwo/IDQ60801/IDQ60801.94387.axf

JavaScript Object Notation format (JSON) in row-major order
http://www.bom.gov.au/fwo/IDQ60801/IDQ60801.94387.json